Disclaimer

Please do not use the information listed here in-flight or in-navigation, as they are not provided to us by the airports but are provided by volunteers, so they might be outdated.

Search


Regions


Airport information page

Radio informations:
MF - 123.0 MHz
COMOX TERMINAL - 123.7 MHz

Airport informations:
Latitude: 49° 50' 52.00" N
Longitude: 124° 29' 57.00" W
Elevation: 369 feet - 112 meters
Operating hours: N/A
Operating agency: Civil government, landing fees and diplomatic clearance may be required
Timezone: Second Sunday in March at 0200 to first Sunday in November at 0200 local time (Exception Arizona and that portion of Indiana in the Eastern Time Zone)
Fuel: Jet B, Wide cut turbine fuel, Without icing inhibitor.

Jet A1, without icing nhibitor.

100/130 octane gasoline, leaded, MIL-L-5572F (GREEN)

Runway information:
09/27 - 3621 x 150 feet< - >1104 x 46 meters

Recent METARs:
CYPW 181631Z 05003KT 050V110 3/4SM BR OVC002 M00/M00 A3024 RMK ST8 VIS W 7 FROIN SLP249
CYPW 181706Z 00000KT 1/4SM FG VV002 00/M00 A3024 RMK FG8 SLP247
CYPW 181739Z 13004KT 090V170 1/8SM FG VV002 02/02 A3025 RMK FG8 SLP250

Airport on the map: